Time;durP1;ratioP1;P1;durP2;ratioP2;P2;SDS_P1;SDS_P2;PMS_P1;PMS_P2;Temp;Humidity;BMP_temperature;BMP_pressure;BME280_temperature;BME280_humidity;BME280_pressure;Samples;Min_cycle;Max_cycle;Signal;HPM_P1;HPM_P2
2023/09/19 00:02:04;;;;;;;2.43;1.40;;;16.00;1.00;;;;;;6217129;23;20464;-43
2023/09/19 00:04:32;;;;;;;2.53;1.70;;;15.80;1.00;;;;;;6217479;23;20400;-44
2023/09/19 00:06:58;;;;;;;2.87;1.40;;;15.80;1.00;;;;;;6216428;23;20439;-43
2023/09/19 00:09:27;;;;;;;2.40;1.53;;;15.80;1.00;;;;;;6215929;23;20364;-43
2023/09/19 00:11:53;;;;;;;1.40;1.00;;;15.80;1.00;;;;;;6217105;23;20377;-44
2023/09/19 00:14:18;;;;;;;2.70;1.30;;;15.80;1.00;;;;;;6217020;23;20784;-44
2023/09/19 00:16:46;;;;;;;2.40;1.43;;;15.70;1.00;;;;;;6216665;23;20158;-44
2023/09/19 00:19:12;;;;;;;2.40;1.00;;;15.70;1.00;;;;;;6217131;23;20154;-43
2023/09/19 00:21:37;;;;;;;1.47;1.10;;;15.70;1.00;;;;;;6216063;23;20359;-44
2023/09/19 00:24:05;;;;;;;2.00;1.50;;;15.70;1.00;;;;;;6216129;23;20783;-42
2023/09/19 00:26:32;;;;;;;4.23;1.30;;;15.70;1.00;;;;;;6217913;23;20637;-43
2023/09/19 00:29:08;;;;;;;2.87;1.40;;;15.70;1.00;;;;;;6217277;23;20377;-43
2023/09/19 00:31:34;;;;;;;1.53;1.33;;;15.80;1.00;;;;;;6193486;23;20380;-44
2023/09/19 00:34:09;;;;;;;2.03;1.30;;;15.80;1.00;;;;;;6216034;23;20412;-43
2023/09/19 00:36:36;;;;;;;2.23;1.30;;;15.70;1.00;;;;;;6217029;23;20353;-44
2023/09/19 00:39:02;;;;;;;2.70;1.53;;;15.70;1.00;;;;;;6217255;23;20433;-44
2023/09/19 00:41:30;;;;;;;5.20;1.60;;;15.70;1.00;;;;;;6189656;23;20382;-44
2023/09/19 00:43:56;;;;;;;3.07;1.30;;;15.70;1.00;;;;;;6190216;23;20437;-43
2023/09/19 00:46:22;;;;;;;1.70;1.00;;;15.60;1.00;;;;;;6190984;23;20440;-43
2023/09/19 00:48:47;;;;;;;4.10;1.40;;;15.70;1.00;;;;;;6216813;23;20368;-44
2023/09/19 00:51:13;;;;;;;1.50;1.30;;;15.70;1.00;;;;;;6217227;23;20177;-43
2023/09/19 00:53:39;;;;;;;1.70;1.10;;;15.60;1.00;;;;;;6217672;23;20192;-43
2023/09/19 00:56:09;;;;;;;1.87;1.17;;;15.70;1.00;;;;;;6190221;23;20392;-43
2023/09/19 00:58:37;;;;;;;2.13;1.33;;;15.70;1.00;;;;;;6190437;23;20769;-44
2023/09/19 01:01:06;;;;;;;1.70;1.30;;;15.70;1.00;;;;;;6189529;23;20384;-43
2023/09/19 01:03:33;;;;;;;2.63;1.30;;;15.70;1.00;;;;;;6215442;23;20357;-44
2023/09/19 01:06:00;;;;;;;4.13;1.57;;;15.60;1.00;;;;;;6216246;23;20815;-43
2023/09/19 01:08:29;;;;;;;2.23;1.10;;;15.70;1.00;;;;;;6216572;23;20384;-43
2023/09/19 01:11:00;;;;;;;1.97;1.20;;;15.60;1.00;;;;;;6216153;23;20446;-44
2023/09/19 01:13:34;;;;;;;1.97;1.20;;;15.60;1.00;;;;;;6215187;23;20385;-44
2023/09/19 01:16:11;;;;;;;1.63;1.13;;;15.70;1.00;;;;;;6188854;23;20418;-43
2023/09/19 01:18:43;;;;;;;1.30;1.00;;;15.70;99.90;;;;;;6190317;23;20357;-44
2023/09/19 01:21:29;;;;;;;1.73;1.10;;;15.70;99.90;;;;;;6189868;23;20380;-44
2023/09/19 01:24:25;;;;;;;2.50;1.03;;;15.80;99.90;;;;;;6190364;23;20809;-43
2023/09/19 01:27:12;;;;;;;2.30;1.40;;;15.80;99.90;;;;;;6217191;23;20418;-43
2023/09/19 01:29:49;;;;;;;1.50;0.93;;;15.80;99.90;;;;;;6217055;23;20377;-44
2023/09/19 01:32:21;;;;;;;1.50;1.10;;;15.80;99.90;;;;;;6216247;23;20395;-43
2023/09/19 01:34:54;;;;;;;2.10;1.10;;;15.80;99.90;;;;;;6189835;23;20381;-44
2023/09/19 01:37:25;;;;;;;1.83;1.20;;;15.70;99.90;;;;;;6215115;23;20391;-44
2023/09/19 01:40:18;;;;;;;2.10;1.07;;;15.70;99.90;;;;;;6216435;23;20369;-44
2023/09/19 01:43:03;;;;;;;1.90;1.03;;;15.70;99.90;;;;;;6216110;23;20456;-43
2023/09/19 01:45:47;;;;;;;1.53;1.07;;;15.70;99.90;;;;;;6216998;23;20408;-43
2023/09/19 01:48:50;;;;;;;5.00;1.27;;;15.60;99.90;;;;;;6190216;23;20376;-44
2023/09/19 01:51:25;;;;;;;3.43;1.20;;;15.70;99.90;;;;;;6066349;23;20396;-43
2023/09/19 01:54:04;;;;;;;1.70;0.90;;;15.70;99.90;;;;;;6168805;23;20454;-44
2023/09/19 01:56:38;;;;;;;2.30;1.20;;;15.70;99.90;;;;;;6189916;23;20385;-44
2023/09/19 01:59:11;;;;;;;2.40;1.30;;;15.60;99.90;;;;;;6216775;23;20812;-43
2023/09/19 02:01:37;;;;;;;2.57;1.57;;;15.70;99.90;;;;;;6189023;23;20776;-43
2023/09/19 02:04:03;;;;;;;1.93;1.40;;;15.60;99.90;;;;;;6214930;23;20704;-43
2023/09/19 02:06:29;;;;;;;1.60;1.20;;;15.50;99.90;;;;;;6188908;23;20400;-43
2023/09/19 02:08:55;;;;;;;2.40;1.40;;;15.50;99.90;;;;;;6215712;23;20404;-43
2023/09/19 02:11:21;;;;;;;2.43;1.10;;;15.50;1.00;;;;;;6188945;23;20157;-44
2023/09/19 02:13:46;;;;;;;2.03;1.37;;;15.50;1.00;;;;;;6216755;23;20377;-44
2023/09/19 02:16:12;;;;;;;2.80;0.93;;;15.40;1.00;;;;;;6216310;23;20237;-43
2023/09/19 02:18:39;;;;;;;1.60;1.03;;;15.50;1.00;;;;;;6215872;23;20542;-44
2023/09/19 02:21:06;;;;;;;1.73;1.03;;;15.50;1.00;;;;;;6215953;23;20213;-44
2023/09/19 02:23:33;;;;;;;2.43;1.47;;;15.40;1.00;;;;;;6216161;23;20408;-43
2023/09/19 02:26:00;;;;;;;2.60;1.63;;;15.40;1.00;;;;;;6216046;23;20456;-44
2023/09/19 02:28:29;;;;;;;3.23;1.30;;;15.40;1.00;;;;;;6216431;23;20419;-43
2023/09/19 02:30:56;;;;;;;1.57;1.27;;;15.50;1.00;;;;;;6215787;23;20381;-43
2023/09/19 02:33:21;;;;;;;1.80;1.10;;;15.40;1.00;;;;;;6215733;23;20753;-43
2023/09/19 02:35:47;;;;;;;1.60;1.20;;;15.50;1.00;;;;;;6216585;23;20383;-45
2023/09/19 02:38:14;;;;;;;2.07;1.20;;;15.50;1.00;;;;;;6216843;23;20405;-44
2023/09/19 02:40:40;;;;;;;3.10;1.50;;;15.50;1.00;;;;;;6216138;23;20153;-44
2023/09/19 02:43:06;;;;;;;1.60;1.37;;;15.50;1.00;;;;;;6215784;23;20723;-44
2023/09/19 02:45:32;;;;;;;2.70;1.57;;;15.40;1.00;;;;;;6215896;23;20229;-43
2023/09/19 02:47:58;;;;;;;2.40;1.83;;;15.40;1.00;;;;;;6216517;23;20788;-43
2023/09/19 02:53:47;;;;;;;3.00;1.40;;;15.30;1.00;;;;;;6214059;23;20420;-43
2023/09/19 02:56:13;;;;;;;2.50;1.57;;;15.40;1.00;;;;;;6213889;23;20385;-43
2023/09/19 02:58:39;;;;;;;2.37;1.40;;;15.40;1.00;;;;;;6213374;23;20372;-44
2023/09/19 03:01:11;;;;;;;1.97;1.40;;;15.40;1.00;;;;;;6213578;23;20767;-43
2023/09/19 03:03:38;;;;;;;2.50;1.83;;;15.50;1.00;;;;;;6214742;23;20185;-44
2023/09/19 03:06:05;;;;;;;2.57;1.67;;;15.50;1.00;;;;;;6215566;23;20510;-43
2023/09/19 03:08:36;;;;;;;3.83;1.03;;;15.50;1.00;;;;;;6215329;23;20408;-44
2023/09/19 03:11:05;;;;;;;3.73;1.20;;;15.60;1.00;;;;;;6216708;23;20384;-43
2023/09/19 03:13:31;;;;;;;3.87;1.30;;;15.60;1.00;;;;;;6217350;23;20364;-44
2023/09/19 03:15:58;;;;;;;2.43;1.83;;;15.60;1.00;;;;;;6218968;23;20392;-44
2023/09/19 03:18:26;;;;;;;2.50;1.50;;;15.60;1.00;;;;;;6191288;23;20376;-44
2023/09/19 03:20:55;;;;;;;2.23;1.40;;;15.60;1.00;;;;;;6217025;23;20385;-43
2023/09/19 03:23:21;;;;;;;2.33;1.93;;;15.60;1.00;;;;;;6216803;23;20381;-44
2023/09/19 03:25:47;;;;;;;1.67;1.37;;;15.60;1.00;;;;;;6217180;23;20405;-44
2023/09/19 03:28:13;;;;;;;3.17;1.40;;;15.60;1.00;;;;;;6217514;23;20935;-44
2023/09/19 03:30:39;;;;;;;3.70;1.87;;;15.60;1.00;;;;;;6217914;23;20380;-43
2023/09/19 03:33:05;;;;;;;2.50;1.60;;;15.60;1.00;;;;;;6217420;23;20821;-44
2023/09/19 03:35:31;;;;;;;3.53;1.40;;;15.60;1.00;;;;;;6215918;23;20509;-44
2023/09/19 03:37:57;;;;;;;3.20;1.40;;;15.50;1.00;;;;;;6215851;23;20396;-44
2023/09/19 03:40:25;;;;;;;2.23;1.50;;;15.60;1.00;;;;;;6217051;23;20224;-44
2023/09/19 03:42:50;;;;;;;2.63;1.83;;;15.60;1.00;;;;;;6216736;23;20597;-44
2023/09/19 03:45:18;;;;;;;3.00;1.60;;;15.60;1.00;;;;;;6215939;23;20444;-44
2023/09/19 03:47:43;;;;;;;3.20;1.90;;;15.60;1.00;;;;;;6216589;23;20222;-44
2023/09/19 03:50:17;;;;;;;2.30;1.57;;;15.60;1.00;;;;;;6216017;23;20641;-44
2023/09/19 03:52:43;;;;;;;2.30;1.70;;;15.60;1.00;;;;;;6214926;23;20126;-44
2023/09/19 03:55:09;;;;;;;5.40;1.90;;;15.60;1.00;;;;;;6216232;23;20381;-44
2023/09/19 03:57:36;;;;;;;2.80;2.10;;;15.60;1.00;;;;;;6215566;23;20389;-44
2023/09/19 04:00:02;;;;;;;2.37;1.73;;;15.50;1.00;;;;;;6214772;23;20407;-43
2023/09/19 04:02:32;;;;;;;1.80;1.60;;;15.50;1.00;;;;;;6215174;23;20396;-44
2023/09/19 04:04:58;;;;;;;3.00;1.70;;;15.50;1.00;;;;;;6216019;23;20388;-44
2023/09/19 04:07:25;;;;;;;3.27;1.70;;;15.60;1.00;;;;;;6216041;23;20420;-44
2023/09/19 04:09:53;;;;;;;3.53;2.10;;;15.60;1.00;;;;;;6216662;23;20182;-44
2023/09/19 04:12:19;;;;;;;3.17;1.87;;;15.60;1.00;;;;;;6216397;23;20392;-44
2023/09/19 04:14:44;;;;;;;5.00;1.80;;;15.60;1.00;;;;;;6216191;23;20393;-44
2023/09/19 04:17:10;;;;;;;1.70;1.60;;;15.60;1.00;;;;;;6189828;23;20154;-44
2023/09/19 04:19:36;;;;;;;1.80;1.40;;;15.60;1.00;;;;;;6216183;23;20394;-44
2023/09/19 04:22:03;;;;;;;2.13;1.40;;;15.60;1.00;;;;;;6215407;23;20553;-44
2023/09/19 04:24:29;;;;;;;3.30;1.67;;;15.70;1.00;;;;;;6215984;23;20428;-44
2023/09/19 04:26:54;;;;;;;2.67;1.40;;;15.60;1.00;;;;;;6214536;23;20440;-44
2023/09/19 04:29:20;;;;;;;2.87;1.77;;;15.60;1.00;;;;;;6215714;23;20154;-44
2023/09/19 04:31:45;;;;;;;1.83;1.57;;;15.60;1.00;;;;;;6215284;23;20135;-44
2023/09/19 04:34:17;;;;;;;2.07;1.73;;;15.60;1.00;;;;;;6215975;23;20150;-44
2023/09/19 04:36:43;;;;;;;2.57;1.77;;;15.60;1.00;;;;;;6215679;23;20191;-44
2023/09/19 04:39:13;;;;;;;2.83;1.60;;;15.60;1.00;;;;;;6214698;23;20976;-44
2023/09/19 04:41:40;;;;;;;2.03;1.37;;;15.60;1.00;;;;;;6214070;23;20392;-44
2023/09/19 04:44:07;;;;;;;4.90;2.10;;;15.70;1.00;;;;;;6214474;23;20444;-44
2023/09/19 04:46:33;;;;;;;3.50;1.90;;;15.70;1.00;;;;;;6215332;23;20407;-44
2023/09/19 04:48:59;;;;;;;2.10;1.50;;;15.70;1.00;;;;;;6215142;23;20381;-44
2023/09/19 04:51:25;;;;;;;2.00;1.47;;;15.70;1.00;;;;;;6214496;23;20150;-44
2023/09/19 04:53:51;;;;;;;2.90;1.60;;;15.70;1.00;;;;;;6214215;23;20692;-44
2023/09/19 04:56:16;;;;;;;1.80;1.57;;;15.70;1.00;;;;;;6213846;23;20420;-44
2023/09/19 04:58:42;;;;;;;2.40;1.70;;;15.60;1.00;;;;;;6213831;23;20134;-44
2023/09/19 05:01:11;;;;;;;2.50;1.57;;;15.70;1.00;;;;;;6212114;23;20263;-44
2023/09/19 05:03:37;;;;;;;5.03;2.43;;;15.60;1.00;;;;;;6213140;23;20154;-44
2023/09/19 05:06:05;;;;;;;2.00;1.80;;;15.60;1.00;;;;;;6212328;23;20427;-44
2023/09/19 05:08:30;;;;;;;2.93;2.30;;;15.60;1.00;;;;;;6213751;23;20427;-44
2023/09/19 05:10:56;;;;;;;2.27;2.07;;;15.60;1.00;;;;;;6214029;23;20384;-44
2023/09/19 05:13:23;;;;;;;2.30;1.93;;;15.50;1.00;;;;;;6215506;23;20134;-44
2023/09/19 05:15:50;;;;;;;3.73;1.83;;;15.50;1.00;;;;;;6216325;23;20177;-44
2023/09/19 05:18:15;;;;;;;2.77;1.67;;;15.50;1.00;;;;;;6213277;23;20389;-44
2023/09/19 05:20:41;;;;;;;3.77;2.10;;;15.50;1.00;;;;;;6210587;23;20391;-44
2023/09/19 05:23:09;;;;;;;3.73;1.80;;;15.50;1.00;;;;;;6210588;23;20162;-44
2023/09/19 05:25:39;;;;;;;5.87;2.37;;;15.50;1.00;;;;;;6209753;23;20503;-44
2023/09/19 05:28:10;;;;;;;4.40;2.30;;;15.50;1.00;;;;;;6159189;23;20402;-44
2023/09/19 05:30:36;;;;;;;3.53;1.87;;;15.50;1.00;;;;;;6208959;23;20447;-44
2023/09/19 05:33:04;;;;;;;3.00;2.30;;;15.50;1.00;;;;;;6209888;23;20652;-44
2023/09/19 05:35:30;;;;;;;2.83;2.00;;;15.50;1.00;;;;;;6209317;23;20153;-45
2023/09/19 05:37:55;;;;;;;2.30;1.90;;;15.50;1.00;;;;;;6212364;23;20753;-44
2023/09/19 05:40:21;;;;;;;5.10;2.20;;;15.50;1.00;;;;;;6210530;23;20130;-45
2023/09/19 05:42:47;;;;;;;2.33;1.67;;;15.50;1.00;;;;;;6210975;23;20481;-44
2023/09/19 05:45:13;;;;;;;2.93;2.17;;;15.50;1.00;;;;;;6212979;23;20228;-44
2023/09/19 05:47:45;;;;;;;3.30;1.73;;;15.50;1.00;;;;;;6212583;23;20154;-44
2023/09/19 05:50:11;;;;;;;3.40;1.80;;;15.50;1.00;;;;;;6212758;23;20380;-44
2023/09/19 05:52:37;;;;;;;3.33;2.03;;;15.60;1.00;;;;;;6211542;23;20415;-44
2023/09/19 05:55:07;;;;;;;4.00;2.10;;;15.60;1.00;;;;;;6214182;23;20444;-44
2023/09/19 05:57:33;;;;;;;1.60;1.50;;;15.60;1.00;;;;;;6214548;23;20389;-44
2023/09/19 05:59:59;;;;;;;3.00;2.20;;;15.60;1.00;;;;;;6213830;23;20391;-44
2023/09/19 06:02:28;;;;;;;2.70;1.90;;;15.70;1.00;;;;;;6212620;23;20388;-43
2023/09/19 06:04:55;;;;;;;3.90;2.10;;;15.70;1.00;;;;;;6211323;23;20556;-42
2023/09/19 06:07:22;;;;;;;3.30;1.83;;;15.70;1.00;;;;;;6210993;23;20566;-43
2023/09/19 06:09:48;;;;;;;2.53;1.70;;;15.70;1.00;;;;;;6212856;23;20492;-43
2023/09/19 06:12:17;;;;;;;4.00;2.13;;;15.60;1.00;;;;;;6210906;23;20397;-43
2023/09/19 06:14:43;;;;;;;3.60;2.13;;;15.60;1.00;;;;;;6211447;23;20385;-43
2023/09/19 06:17:09;;;;;;;2.53;1.60;;;15.60;1.00;;;;;;6212602;23;20558;-42
2023/09/19 06:19:34;;;;;;;3.37;3.00;;;15.50;1.00;;;;;;6213599;23;20364;-43
2023/09/19 06:22:00;;;;;;;1.47;0.97;;;15.50;1.00;;;;;;6212286;23;20397;-43
2023/09/19 06:24:25;;;;;;;2.80;1.60;;;15.50;1.00;;;;;;6212923;23;20170;-43
2023/09/19 06:26:52;;;;;;;2.50;1.57;;;15.40;1.00;;;;;;6184501;23;20818;-43
2023/09/19 06:29:20;;;;;;;2.40;1.40;;;15.30;1.00;;;;;;6209940;23;20229;-43
2023/09/19 06:31:46;;;;;;;2.87;1.20;;;15.20;1.00;;;;;;6183984;23;20373;-43
2023/09/19 06:34:15;;;;;;;2.37;1.50;;;15.30;1.00;;;;;;6213133;23;20365;-43
2023/09/19 06:36:41;;;;;;;2.50;1.57;;;15.40;1.00;;;;;;6214904;23;20391;-43
2023/09/19 06:39:09;;;;;;;2.27;1.70;;;15.60;1.00;;;;;;6188170;23;20807;-51
2023/09/19 06:41:39;;;;;;;2.20;1.13;;;15.80;1.00;;;;;;6215340;23;20256;-44
2023/09/19 06:44:06;;;;;;;2.40;1.10;;;15.90;1.00;;;;;;6182868;23;20663;-44
2023/09/19 06:46:34;;;;;;;2.50;1.40;;;15.90;1.00;;;;;;6185111;23;20689;-43
2023/09/19 06:49:06;;;;;;;3.00;1.10;;;16.00;1.00;;;;;;6184855;23;20369;-43
2023/09/19 06:51:32;;;;;;;1.67;0.97;;;16.10;99.90;;;;;;6184605;23;20381;-43
2023/09/19 06:53:58;;;;;;;2.17;1.43;;;16.30;1.00;;;;;;6185815;23;20665;-44
2023/09/19 06:56:25;;;;;;;4.23;1.80;;;16.50;99.90;;;;;;6186004;23;20382;-43
2023/09/19 06:58:51;;;;;;;3.03;1.30;;;16.50;99.90;;;;;;6186322;23;20358;-44
2023/09/19 07:01:18;;;;;;;1.70;1.20;;;16.60;99.90;;;;;;6183248;23;20358;-43
2023/09/19 07:03:45;;;;;;;2.60;1.60;;;16.60;99.90;;;;;;6186487;23;20531;-43
2023/09/19 07:06:11;;;;;;;2.50;1.77;;;16.60;99.90;;;;;;6185851;23;20858;-43
2023/09/19 07:08:38;;;;;;;2.50;1.30;;;16.70;99.90;;;;;;6186731;23;20386;-43
2023/09/19 07:11:06;;;;;;;2.80;1.63;;;16.70;99.90;;;;;;6185942;23;20150;-44
2023/09/19 07:13:32;;;;;;;3.10;1.43;;;16.90;99.90;;;;;;6185585;23;20374;-43
2023/09/19 07:15:59;;;;;;;4.87;1.63;;;17.00;99.90;;;;;;6186533;23;20386;-43
2023/09/19 07:18:25;;;;;;;2.07;1.30;;;17.20;99.90;;;;;;6187079;23;20452;-44
2023/09/19 07:20:51;;;;;;;1.37;1.23;;;17.30;99.90;;;;;;6185529;23;20406;-44
2023/09/19 07:23:18;;;;;;;4.47;1.50;;;17.30;99.90;;;;;;6186725;23;20378;-43
2023/09/19 07:25:44;;;;;;;7.73;2.50;;;17.30;99.90;;;;;;6186035;23;20464;-44
2023/09/19 07:28:09;;;;;;;1.57;1.13;;;17.40;99.90;;;;;;6183406;23;20362;-43
2023/09/19 07:30:39;;;;;;;2.63;1.40;;;17.50;39.10;;;;;;6183974;23;20465;-44
2023/09/19 07:33:05;;;;;;;2.00;1.10;;;17.60;1.00;;;;;;6186332;23;20193;-44
2023/09/19 07:35:31;;;;;;;2.17;1.40;;;17.60;1.00;;;;;;6185787;23;20386;-44
2023/09/19 07:37:58;;;;;;;2.00;1.50;;;17.80;1.00;;;;;;6184875;23;20390;-44
2023/09/19 07:40:26;;;;;;;1.80;1.70;;;17.80;1.00;;;;;;6185562;23;20829;-44
2023/09/19 07:42:52;;;;;;;2.37;1.60;;;17.90;1.00;;;;;;6197486;23;20457;-43
2023/09/19 07:45:18;;;;;;;2.50;1.60;;;17.80;1.00;;;;;;6215881;23;20389;-44
2023/09/19 07:47:45;;;;;;;1.60;1.43;;;17.90;1.00;;;;;;6217023;23;20392;-44
2023/09/19 07:50:11;;;;;;;3.87;1.57;;;17.90;99.90;;;;;;6216095;23;20154;-44
2023/09/19 07:52:39;;;;;;;1.60;1.30;;;17.90;99.90;;;;;;6216059;23;20385;-44
2023/09/19 07:55:09;;;;;;;1.37;1.10;;;17.80;99.90;;;;;;6217229;23;20478;-43
2023/09/19 07:57:35;;;;;;;2.13;1.70;;;17.80;99.90;;;;;;6215507;23;20510;-43
2023/09/19 08:00:04;;;;;;;2.57;1.57;;;17.90;62.50;;;;;;6216441;23;20443;-44
2023/09/19 08:02:30;;;;;;;3.53;1.87;;;18.00;99.90;;;;;;6214009;23;20381;-44
2023/09/19 08:04:57;;;;;;;3.10;2.00;;;18.30;1.00;;;;;;6214487;23;20466;-44
2023/09/19 08:07:23;;;;;;;1.70;1.50;;;18.40;1.00;;;;;;6216651;23;20418;-43
2023/09/19 08:09:49;;;;;;;2.60;1.90;;;18.40;1.00;;;;;;6217625;23;20384;-43
2023/09/19 08:12:14;;;;;;;2.80;1.93;;;18.50;1.00;;;;;;6215326;23;20377;-43
2023/09/19 08:14:43;;;;;;;2.20;1.77;;;18.50;1.00;;;;;;6216242;23;20215;-43
2023/09/19 08:17:09;;;;;;;2.60;1.70;;;18.60;99.90;;;;;;6217165;23;20292;-44
2023/09/19 08:19:36;;;;;;;1.93;1.60;;;18.60;99.90;;;;;;6215705;23;20762;-44
2023/09/19 08:22:02;;;;;;;1.77;1.17;;;18.80;99.90;;;;;;6214149;23;20145;-43
2023/09/19 08:24:29;;;;;;;3.47;1.70;;;18.70;99.90;;;;;;6215079;23;20489;-43
2023/09/19 08:26:55;;;;;;;1.70;1.50;;;18.60;1.00;;;;;;6215820;23;20466;-44
2023/09/19 08:29:21;;;;;;;2.07;1.73;;;18.50;86.60;;;;;;6214757;23;20385;-43
2023/09/19 08:31:49;;;;;;;3.30;1.73;;;18.20;1.00;;;;;;6215221;23;20372;-44
2023/09/19 08:34:15;;;;;;;3.40;2.10;;;18.10;1.00;;;;;;6216061;23;20407;-44
2023/09/19 08:36:43;;;;;;;2.37;1.57;;;18.20;1.00;;;;;;6216359;23;20397;-45
2023/09/19 08:39:08;;;;;;;2.47;1.60;;;18.20;1.00;;;;;;6215994;23;20388;-44
2023/09/19 08:41:34;;;;;;;2.53;1.77;;;18.20;99.90;;;;;;6212997;23;20392;-43
2023/09/19 08:44:03;;;;;;;2.47;1.40;;;18.40;1.00;;;;;;6211207;23;20197;-44
2023/09/19 08:46:30;;;;;;;3.03;1.67;;;18.50;1.00;;;;;;6213466;23;20158;-44
2023/09/19 08:49:08;;;;;;;1.83;1.60;;;18.70;99.90;;;;;;6186892;23;20402;-44
2023/09/19 08:51:46;;;;;;;1.93;1.37;;;18.90;99.90;;;;;;6188959;23;20385;-44
2023/09/19 08:54:19;;;;;;;3.20;1.67;;;19.30;99.90;;;;;;6189696;23;20376;-44
2023/09/19 08:56:47;;;;;;;3.10;1.63;;;19.80;99.90;;;;;;6212502;23;20411;-44
2023/09/19 08:59:13;;;;;;;2.57;1.70;;;20.20;1.00;;;;;;6213985;23;20377;-44
2023/09/19 09:01:41;;;;;;;1.67;1.30;;;20.40;15.50;;;;;;6187943;23;20349;-48
2023/09/19 09:04:09;;;;;;;3.70;1.50;;;20.70;99.90;;;;;;6216128;23;20349;-44
2023/09/19 09:06:34;;;;;;;2.27;1.40;;;20.80;1.00;;;;;;6215703;23;20580;-44
2023/09/19 09:09:00;;;;;;;2.37;1.53;;;20.60;1.00;;;;;;6189916;23;20782;-44
2023/09/19 09:11:27;;;;;;;2.90;1.70;;;20.70;1.00;;;;;;6214815;23;20518;-44
2023/09/19 09:13:53;;;;;;;1.80;1.33;;;20.90;99.90;;;;;;6214947;23;20354;-44
2023/09/19 09:16:19;;;;;;;1.67;1.50;;;20.90;99.90;;;;;;6214753;23;20368;-44
2023/09/19 09:18:52;;;;;;;1.67;1.40;;;20.90;99.90;;;;;;6215040;23;20236;-44
2023/09/19 09:21:18;;;;;;;1.80;1.23;;;20.90;99.90;;;;;;6189105;23;20157;-44
2023/09/19 09:23:43;;;;;;;3.07;1.60;;;20.60;99.90;;;;;;6213807;23;20404;-44
2023/09/19 09:26:09;;;;;;;4.10;1.33;;;20.60;99.90;;;;;;6213643;23;20272;-44
2023/09/19 09:28:36;;;;;;;2.47;1.60;;;20.60;99.90;;;;;;6213449;23;20141;-44
2023/09/19 09:31:08;;;;;;;1.90;1.70;;;20.80;90.70;;;;;;6214106;23;20126;-43
2023/09/19 09:33:35;;;;;;;2.10;1.43;;;21.00;78.30;;;;;;6215014;23;20385;-44
2023/09/19 09:36:02;;;;;;;5.63;1.67;;;20.90;74.10;;;;;;6214442;23;20381;-44
2023/09/19 09:38:45;;;;;;;1.90;1.30;;;21.10;43.20;;;;;;6213029;23;20385;-44
2023/09/19 09:41:15;;;;;;;2.33;1.43;;;21.30;26.10;;;;;;6213878;23;20389;-43
2023/09/19 09:43:44;;;;;;;1.90;1.40;;;21.90;1.00;;;;;;6214235;23;20726;-44
2023/09/19 09:48:54;;;;;;;1.90;1.33;;;22.80;1.00;;;;;;6215027;23;20388;-44
2023/09/19 09:51:33;;;;;;;2.27;1.73;;;23.10;1.00;;;;;;6214943;23;20956;-43
2023/09/19 09:54:19;;;;;;;2.37;1.70;;;23.50;1.00;;;;;;6213403;23;20381;-44
2023/09/19 09:56:58;;;;;;;2.10;1.30;;;23.90;1.00;;;;;;6162150;23;20412;-43
2023/09/19 09:59:46;;;;;;;2.53;1.60;;;23.40;1.00;;;;;;6213128;23;20388;-44
2023/09/19 10:02:13;;;;;;;2.60;1.73;;;24.00;1.00;;;;;;6212548;23;20389;-44
2023/09/19 10:04:51;;;;;;;2.10;1.57;;;24.40;1.00;;;;;;6213412;23;20353;-44
2023/09/19 10:07:35;;;;;;;2.23;1.60;;;24.70;1.00;;;;;;6215685;23;20416;-43
2023/09/19 10:10:28;;;;;;;2.30;1.70;;;24.50;1.00;;;;;;6216102;23;20364;-43
2023/09/19 10:12:56;;;;;;;2.53;2.03;;;24.70;1.00;;;;;;6212894;23;20578;-44
2023/09/19 10:15:24;;;;;;;2.93;1.67;;;24.40;1.00;;;;;;6187053;23;20392;-44
2023/09/19 10:17:54;;;;;;;3.27;1.53;;;24.90;1.00;;;;;;6215072;23;20381;-44
2023/09/19 10:22:59;;;;;;;4.13;1.80;;;26.50;1.00;;;;;;6190642;23;20405;-44
2023/09/19 10:25:28;;;;;;;2.20;1.53;;;27.10;1.00;;;;;;6214098;23;20608;-44
2023/09/19 10:27:55;;;;;;;3.40;1.87;;;27.90;1.00;;;;;;6214567;23;20657;-44
2023/09/19 10:30:23;;;;;;;2.17;1.70;;;28.50;1.00;;;;;;6213226;23;20413;-44
2023/09/19 10:33:02;;;;;;;2.60;1.20;;;28.20;1.00;;;;;;6186926;23;20363;-45
2023/09/19 10:35:28;;;;;;;1.97;1.40;;;28.00;1.00;;;;;;6214514;23;20708;-44
2023/09/19 10:38:01;;;;;;;2.37;1.70;;;28.10;1.00;;;;;;6214313;23;20831;-44
2023/09/19 10:40:32;;;;;;;2.50;1.53;;;28.60;1.00;;;;;;6186820;23;20385;-44
2023/09/19 10:43:05;;;;;;;7.73;1.80;;;29.00;1.00;;;;;;6213797;23;20429;-44
2023/09/19 10:45:33;;;;;;;2.23;1.80;;;28.80;1.00;;;;;;6215509;23;20482;-44
2023/09/19 10:48:00;;;;;;;2.30;1.40;;;29.10;1.00;;;;;;6214683;23;20371;-44
2023/09/19 10:50:27;;;;;;;1.90;1.63;;;29.00;1.00;;;;;;6213481;23;20391;-44
2023/09/19 10:52:58;;;;;;;1.90;1.53;;;29.80;1.00;;;;;;6188275;23;20796;-44
2023/09/19 10:55:27;;;;;;;3.10;1.70;;;29.40;1.00;;;;;;6213642;23;20439;-45
2023/09/19 10:57:53;;;;;;;2.17;1.77;;;29.80;1.00;;;;;;6187040;23;20503;-44
2023/09/19 11:00:28;;;;;;;2.00;1.43;;;29.50;1.00;;;;;;6211859;23;20421;-45
2023/09/19 11:03:12;;;;;;;2.90;1.43;;;28.30;1.00;;;;;;6212725;23;20398;-44
2023/09/19 11:05:40;;;;;;;3.30;1.80;;;27.20;1.00;;;;;;6213377;23;20429;-44
2023/09/19 11:08:12;;;;;;;2.63;1.63;;;26.40;1.00;;;;;;6185746;23;20397;-44
2023/09/19 11:10:51;;;;;;;2.40;1.70;;;26.70;1.00;;;;;;6213329;23;20349;-44
2023/09/19 11:13:34;;;;;;;3.17;1.43;;;26.90;1.00;;;;;;6183126;23;20455;-43
2023/09/19 11:16:00;;;;;;;1.80;1.30;;;28.00;1.00;;;;;;6210400;23;20452;-44
2023/09/19 11:18:41;;;;;;;2.60;1.60;;;28.10;1.00;;;;;;6210903;23;20499;-44
2023/09/19 11:21:33;;;;;;;4.37;1.67;;;28.70;1.00;;;;;;6210880;23;20423;-43
2023/09/19 11:24:24;;;;;;;2.20;1.50;;;28.60;1.00;;;;;;6186716;23;20389;-44
2023/09/19 11:26:51;;;;;;;2.80;1.53;;;27.00;1.00;;;;;;6215294;23;20420;-44
2023/09/19 11:29:33;;;;;;;2.30;1.80;;;27.60;1.00;;;;;;6215259;23;20424;-43
2023/09/19 11:32:02;;;;;;;4.90;1.20;;;26.70;1.00;;;;;;6212935;23;20396;-44
2023/09/19 11:34:36;;;;;;;2.13;1.40;;;27.20;1.00;;;;;;6212872;23;20668;-43
2023/09/19 11:37:34;;;;;;;3.13;1.43;;;28.00;1.00;;;;;;6214109;23;20372;-44
2023/09/19 11:40:16;;;;;;;2.70;1.33;;;29.10;1.00;;;;;;6212509;23;20916;-43
2023/09/19 11:42:45;;;;;;;3.27;1.80;;;30.40;1.00;;;;;;6214558;23;20515;-44
2023/09/19 11:45:45;;;;;;;2.40;1.50;;;30.60;1.00;;;;;;6214727;23;20384;-44
2023/09/19 11:48:20;;;;;;;2.00;1.60;;;30.70;1.00;;;;;;6213111;23;20373;-44
2023/09/19 11:50:47;;;;;;;2.63;1.60;;;31.60;1.00;;;;;;6186707;23;20386;-44
2023/09/19 11:53:12;;;;;;;2.00;1.43;;;31.10;1.00;;;;;;6213825;23;20741;-45
2023/09/19 11:55:45;;;;;;;3.70;2.00;;;29.80;1.00;;;;;;6211624;23;20475;-44
2023/09/19 11:58:13;;;;;;;2.63;1.80;;;27.70;1.00;;;;;;6211912;23;20439;-44
2023/09/19 12:00:41;;;;;;;3.43;1.50;;;27.20;1.00;;;;;;6210169;23;20388;-44
2023/09/19 12:03:11;;;;;;;1.83;1.43;;;28.20;1.00;;;;;;6188175;23;20377;-44
2023/09/19 12:05:37;;;;;;;1.87;1.30;;;29.10;1.00;;;;;;6213973;23;20851;-44
2023/09/19 12:08:07;;;;;;;3.10;1.67;;;29.00;1.00;;;;;;6215820;23;20396;-44
2023/09/19 12:10:33;;;;;;;2.00;1.47;;;30.10;1.00;;;;;;6216094;23;20365;-44
2023/09/19 12:12:59;;;;;;;3.80;1.53;;;30.70;1.00;;;;;;6214504;23;20363;-44
2023/09/19 12:15:34;;;;;;;2.63;1.70;;;30.50;1.00;;;;;;6216893;23;20150;-45
2023/09/19 12:18:00;;;;;;;1.40;1.20;;;32.10;1.00;;;;;;6217166;23;20445;-43
2023/09/19 12:20:41;;;;;;;3.10;1.67;;;32.60;1.00;;;;;;6216253;23;20451;-43
2023/09/19 12:23:13;;;;;;;1.70;1.53;;;31.90;1.00;;;;;;6215463;23;20644;-44
2023/09/19 12:25:46;;;;;;;1.80;1.60;;;31.10;1.00;;;;;;6214811;23;20821;-44
2023/09/19 12:28:12;;;;;;;3.93;1.83;;;31.10;1.00;;;;;;6215682;23;20328;-43
2023/09/19 12:30:39;;;;;;;2.27;1.50;;;31.50;1.00;;;;;;6215466;23;20466;-43
2023/09/19 12:33:05;;;;;;;2.50;1.77;;;32.50;1.00;;;;;;6188230;23;20710;-43
2023/09/19 12:35:34;;;;;;;5.13;2.10;;;33.90;1.00;;;;;;6186651;23;20396;-44
2023/09/19 12:38:00;;;;;;;2.70;1.67;;;34.40;1.00;;;;;;6214162;23;20290;-44
2023/09/19 12:40:28;;;;;;;2.80;1.40;;;33.50;1.00;;;;;;6214286;23;20332;-44
2023/09/19 12:42:58;;;;;;;2.30;1.37;;;32.90;1.00;;;;;;6176787;23;20437;-44
2023/09/19 12:45:25;;;;;;;2.67;1.53;;;32.10;1.00;;;;;;6211078;23;20394;-44
2023/09/19 12:48:20;;;;;;;2.83;1.70;;;31.90;1.00;;;;;;6214244;23;20431;-44
2023/09/19 12:51:11;;;;;;;2.13;1.63;;;31.90;1.00;;;;;;6187554;23;20472;-44
2023/09/19 12:53:43;;;;;;;2.43;1.63;;;32.50;1.00;;;;;;6213926;23;20496;-44
2023/09/19 12:56:13;;;;;;;2.60;1.67;;;33.00;1.00;;;;;;6211844;23;20584;-44
2023/09/19 12:58:56;;;;;;;2.87;1.53;;;33.30;1.00;;;;;;6212534;23;20373;-44
2023/09/19 13:01:29;;;;;;;1.80;1.43;;;33.30;1.00;;;;;;6213307;23;20350;-44
2023/09/19 13:04:14;;;;;;;2.03;1.60;;;32.50;1.00;;;;;;6212481;23;20895;-44
2023/09/19 13:06:43;;;;;;;2.20;1.60;;;32.70;1.00;;;;;;6213236;23;20405;-44
2023/09/19 13:09:11;;;;;;;3.30;1.57;;;33.30;1.00;;;;;;6213394;23;20418;-44
2023/09/19 13:11:42;;;;;;;1.70;1.50;;;32.50;1.00;;;;;;6211963;23;20356;-44
2023/09/19 13:14:19;;;;;;;3.30;1.40;;;31.90;1.00;;;;;;6212389;23;20792;-44
2023/09/19 13:17:04;;;;;;;2.57;1.80;;;32.30;1.00;;;;;;6211963;23;20400;-44